Time;durP1;ratioP1;P1;durP2;ratioP2;P2;SDS_P1;SDS_P2;PMS_P1;PMS_P2;Temp;Humidity;BMP_temperature;BMP_pressure;BME280_temperature;BME280_humidity;BME280_pressure;Samples;Min_cycle;Max_cycle;Signal;HPM_P1;HPM_P2
2022/07/21 00:00:54;;;;;;;5.00;2.90;;;;;;;21.69;47.51;101047.90;107626;1246;58747;-74
2022/07/21 00:03:23;;;;;;;8.30;3.00;;;;;;;21.67;47.81;101053.01;107495;1247;59101;-68
2022/07/21 00:05:52;;;;;;;7.80;3.10;;;;;;;21.64;48.30;101053.56;107693;1244;62198;-71
2022/07/21 00:08:21;;;;;;;6.20;3.10;;;;;;;21.63;48.18;101056.78;107605;1246;61741;-70
2022/07/21 00:10:50;;;;;;;7.20;3.30;;;;;;;21.60;48.24;101057.86;107597;1246;59911;-70
2022/07/21 00:13:19;;;;;;;6.60;3.10;;;;;;;21.55;48.30;101057.23;107570;1244;73440;-71
2022/07/21 00:15:48;;;;;;;7.10;3.00;;;;;;;21.53;48.27;101060.61;107456;1244;60496;-71
2022/07/21 00:18:19;;;;;;;6.80;3.60;;;;;;;21.49;48.67;101061.87;107652;1245;57459;-71
2022/07/21 00:20:48;;;;;;;6.70;3.20;;;;;;;21.46;48.54;101061.66;107758;1244;64698;-73
2022/07/21 00:23:16;;;;;;;7.30;3.30;;;;;;;21.41;48.72;101062.63;107831;1244;71938;-72
2022/07/21 00:25:45;;;;;;;7.30;3.30;;;;;;;21.39;48.83;101062.92;107733;1247;71295;-72
2022/07/21 00:28:14;;;;;;;4.30;3.20;;;;;;;21.37;48.86;101063.12;107728;1244;63543;-71
2022/07/21 00:30:44;;;;;;;6.10;3.40;;;;;;;21.34;49.23;101066.46;107721;1246;58893;-72
2022/07/21 00:33:13;;;;;;;7.50;3.30;;;;;;;21.32;49.19;101068.09;107631;1244;61073;-70
2022/07/21 00:35:42;;;;;;;8.30;3.30;;;;;;;21.30;49.53;101069.05;107583;1245;62676;-70
2022/07/21 00:38:11;;;;;;;5.30;3.30;;;;;;;21.24;50.17;101072.71;107564;1245;61523;-71
2022/07/21 00:40:41;;;;;;;7.80;3.40;;;;;;;21.22;50.05;101072.32;107597;1244;69943;-68
2022/07/21 00:43:10;;;;;;;5.30;3.20;;;;;;;21.22;49.79;101073.13;107693;1244;73024;-69
2022/07/21 00:45:39;;;;;;;5.80;3.40;;;;;;;21.21;50.32;101071.70;107508;1246;60562;-70
2022/07/21 00:48:08;;;;;;;7.60;3.80;;;;;;;21.19;50.44;101072.09;107609;1244;61154;-70
2022/07/21 00:50:37;;;;;;;5.40;3.20;;;;;;;21.18;50.34;101075.36;107457;1244;74149;-73
2022/07/21 00:53:05;;;;;;;5.90;3.50;;;;;;;21.16;50.77;101077.71;107671;1244;63065;-73
2022/07/21 00:55:37;;;;;;;6.60;3.50;;;;;;;21.16;50.74;101078.12;107702;1245;59806;-74
2022/07/21 00:58:06;;;;;;;4.50;3.30;;;;;;;21.17;50.69;101077.95;107504;1244;73892;-73
2022/07/21 01:00:36;;;;;;;5.50;3.20;;;;;;;21.16;50.63;101077.86;107728;1244;62062;-72
2022/07/21 01:03:07;;;;;;;5.20;3.50;;;;;;;21.16;50.70;101074.70;107686;1244;59129;-73
2022/07/21 01:05:36;;;;;;;7.10;3.40;;;;;;;21.15;50.52;101075.89;107494;1246;62849;-72
2022/07/21 01:08:06;;;;;;;6.20;3.70;;;;;;;21.12;50.65;101076.52;107625;1244;60868;-74
2022/07/21 01:10:35;;;;;;;8.00;3.40;;;;;;;21.06;50.86;101072.77;107664;1244;70613;-73
2022/07/21 01:13:04;;;;;;;6.70;3.30;;;;;;;21.04;50.60;101077.45;107767;1244;74622;-74
2022/07/21 01:15:33;;;;;;;6.50;3.90;;;;;;;21.02;51.18;101086.39;107257;1243;629082;-71
2022/07/21 01:18:03;;;;;;;5.40;3.70;;;;;;;21.02;51.05;101087.98;107758;1244;59013;-73
2022/07/21 01:20:37;;;;;;;5.80;3.50;;;;;;;20.97;51.17;101084.04;107622;1244;73646;-71
2022/07/21 01:23:06;;;;;;;5.70;3.30;;;;;;;20.93;51.66;101086.84;107781;1245;61391;-68
2022/07/21 01:25:35;;;;;;;7.90;3.70;;;;;;;20.91;51.42;101088.95;107825;1246;60414;-71
2022/07/21 01:28:04;;;;;;;7.40;3.80;;;;;;;20.89;51.48;101088.55;107782;1244;62495;-70
2022/07/21 01:30:33;;;;;;;5.40;3.60;;;;;;;20.86;51.43;101084.79;107649;1246;58977;-70
2022/07/21 01:33:03;;;;;;;7.40;3.60;;;;;;;20.84;51.53;101086.58;107690;1244;58509;-73
2022/07/21 01:35:31;;;;;;;5.90;3.20;;;;;;;20.79;52.20;101087.36;107685;1244;72766;-72
2022/07/21 01:38:01;;;;;;;7.90;3.50;;;;;;;20.71;52.94;101094.35;107814;1244;73269;-70
2022/07/21 01:43:17;;;;;;;7.60;4.10;;;;;;;20.64;52.93;101099.58;107742;1244;73035;-70
2022/07/21 01:46:05;;;;;;;8.30;4.00;;;;;;;20.60;52.53;101096.63;107815;1244;61118;-70
2022/07/21 01:48:49;;;;;;;4.70;3.40;;;;;;;20.54;52.61;101095.31;107862;1244;61586;-73
2022/07/21 01:51:19;;;;;;;8.00;3.60;;;;;;;20.49;53.34;101097.69;107911;1243;73289;-73
2022/07/21 01:53:48;;;;;;;9.40;3.50;;;;;;;20.46;52.85;101100.14;107812;1244;72138;-70
2022/07/21 01:56:24;;;;;;;5.90;3.80;;;;;;;20.42;53.69;101101.72;107830;1244;70955;-71
2022/07/21 01:58:56;;;;;;;5.30;3.40;;;;;;;20.38;53.90;101100.19;107767;1244;73964;-70
2022/07/21 02:01:28;;;;;;;4.90;3.60;;;;;;;20.37;53.49;101106.53;107634;1244;60254;-70
2022/07/21 02:04:00;;;;;;;8.70;3.50;;;;;;;20.37;53.58;101107.59;107774;1244;59772;-72
2022/07/21 02:06:30;;;;;;;6.10;4.40;;;;;;;20.36;53.85;101108.98;107746;1244;63417;-73
2022/07/21 02:08:59;;;;;;;8.10;4.00;;;;;;;20.34;53.80;101108.08;107630;1243;72199;-69
2022/07/21 02:11:28;;;;;;;5.40;3.30;;;;;;;20.35;53.40;101108.87;107752;1244;69347;-68
2022/07/21 02:13:56;;;;;;;4.50;3.30;;;;;;;20.34;53.40;101107.71;107558;1244;74267;-70
2022/07/21 02:16:25;;;;;;;5.60;3.40;;;;;;;20.34;53.61;101109.54;107953;1243;60851;-70
2022/07/21 02:18:54;;;;;;;6.00;3.70;;;;;;;20.31;53.37;101107.84;107690;1244;61694;-74
2022/07/21 02:21:24;;;;;;;5.70;3.50;;;;;;;20.33;53.44;101109.37;107819;1244;63751;-68
2022/07/21 02:23:53;;;;;;;5.70;3.50;;;;;;;20.32;53.54;101111.43;107772;1244;60785;-69
2022/07/21 02:26:22;;;;;;;7.50;3.90;;;;;;;20.33;53.24;101111.92;107745;1244;59974;-68
2022/07/21 02:28:52;;;;;;;7.30;3.70;;;;;;;20.32;53.34;101113.75;107627;1245;72841;-69
2022/07/21 02:31:21;;;;;;;5.60;3.70;;;;;;;20.30;53.52;101114.34;107819;1244;58534;-73
2022/07/21 02:33:50;;;;;;;6.20;3.40;;;;;;;20.26;53.51;101118.98;107850;1245;59059;-72
2022/07/21 02:36:19;;;;;;;6.20;3.80;;;;;;;20.25;53.76;101122.66;107872;1244;74216;-73
2022/07/21 02:38:50;;;;;;;5.30;3.70;;;;;;;20.21;53.91;101121.65;107835;1244;62388;-73
2022/07/21 02:41:20;;;;;;;5.40;3.50;;;;;;;20.16;54.15;101118.34;107965;1245;60053;-72
2022/07/21 02:43:49;;;;;;;5.40;3.50;;;;;;;20.11;54.26;101120.31;107769;1245;63262;-74
2022/07/21 02:46:18;;;;;;;7.90;3.80;;;;;;;20.05;54.70;101114.90;108016;1244;58440;-74
2022/07/21 02:48:46;;;;;;;5.30;3.40;;;;;;;20.00;54.46;101117.95;107835;1245;60489;-71
2022/07/21 02:51:16;;;;;;;5.60;3.80;;;;;;;19.98;54.29;101120.29;107716;1244;74069;-72
2022/07/21 02:53:45;;;;;;;6.00;3.50;;;;;;;19.92;54.30;101125.02;107879;1244;73008;-73
2022/07/21 02:56:15;;;;;;;7.20;3.70;;;;;;;19.86;54.57;101128.99;107751;1243;60958;-73
2022/07/21 02:58:44;;;;;;;8.50;3.80;;;;;;;19.82;54.68;101129.56;107868;1244;73036;-74
2022/07/21 03:01:14;;;;;;;6.30;3.60;;;;;;;19.79;54.68;101128.23;107780;1244;61844;-73
2022/07/21 03:03:43;;;;;;;5.50;3.70;;;;;;;19.76;54.80;101131.75;107808;1244;60976;-72
2022/07/21 03:06:12;;;;;;;10.50;4.00;;;;;;;19.75;54.81;101134.54;107828;1246;73154;-70
2022/07/21 03:08:40;;;;;;;6.40;3.40;;;;;;;19.75;54.87;101129.02;107846;1244;71469;-70
2022/07/21 03:11:09;;;;;;;5.30;3.50;;;;;;;19.74;55.00;101131.05;107813;1244;61596;-71
2022/07/21 03:13:38;;;;;;;4.20;3.20;;;;;;;19.74;54.94;101132.64;107710;1244;62516;-72
2022/07/21 03:16:07;;;;;;;5.90;3.40;;;;;;;19.73;55.33;101133.86;107804;1245;58753;-70
2022/07/21 03:18:36;;;;;;;7.30;3.90;;;;;;;19.76;55.12;101135.48;107910;1246;58629;-73
2022/07/21 03:21:05;;;;;;;8.70;3.80;;;;;;;19.75;55.47;101136.39;107854;1244;62041;-73
2022/07/21 03:23:34;;;;;;;8.60;3.50;;;;;;;19.81;55.51;101139.73;107836;1245;60888;-74
2022/07/21 03:26:03;;;;;;;7.20;3.50;;;;;;;19.88;54.82;101145.02;107848;1244;68410;-73
2022/07/21 03:28:32;;;;;;;4.90;3.40;;;;;;;19.91;55.20;101142.94;107883;1244;72955;-72
2022/07/21 03:31:01;;;;;;;5.80;3.10;;;;;;;19.89;55.36;101145.63;107807;1244;61684;-72
2022/07/21 03:33:29;;;;;;;7.70;4.10;;;;;;;19.96;54.91;101143.95;107733;1244;60717;-74
2022/07/21 03:35:59;;;;;;;7.60;3.80;;;;;;;19.98;54.87;101150.79;107751;1245;73542;-71
2022/07/21 03:38:28;;;;;;;5.30;3.50;;;;;;;19.98;54.81;101154.20;107905;1244;62274;-73
2022/07/21 03:40:57;;;;;;;7.20;4.00;;;;;;;19.95;54.78;101154.48;107673;1244;59381;-73
2022/07/21 03:43:26;;;;;;;9.50;4.10;;;;;;;19.89;55.05;101155.52;107798;1246;63295;-73
2022/07/21 03:45:55;;;;;;;4.90;3.20;;;;;;;19.85;55.17;101159.12;107884;1244;59031;-71
2022/07/21 03:48:24;;;;;;;7.30;3.60;;;;;;;19.88;54.73;101160.15;107858;1245;58294;-71
2022/07/21 03:50:53;;;;;;;6.90;4.30;;;;;;;19.90;54.53;101158.61;107982;1244;72771;-73
2022/07/21 03:53:22;;;;;;;6.50;3.80;;;;;;;19.87;54.32;101156.09;108091;1244;73240;-73
2022/07/21 03:55:51;;;;;;;8.00;3.90;;;;;;;19.87;54.07;101157.48;107903;1244;70679;-75
2022/07/21 03:58:19;;;;;;;7.90;3.60;;;;;;;19.80;54.52;101159.23;107740;1245;63285;-71
2022/07/21 04:00:48;;;;;;;8.40;3.60;;;;;;;19.80;54.15;101157.09;107801;1244;58733;-72
2022/07/21 04:03:17;;;;;;;8.80;4.00;;;;;;;19.80;54.20;101156.29;107676;1244;61417;-70
2022/07/21 04:05:46;;;;;;;7.80;3.90;;;;;;;19.78;54.39;101154.30;107694;1244;73800;-70
2022/07/21 04:08:15;;;;;;;5.80;3.80;;;;;;;19.77;53.93;101153.17;107637;1246;73319;-70
2022/07/21 04:10:44;;;;;;;8.10;3.80;;;;;;;19.77;53.97;101154.28;107667;1244;69483;-71
2022/07/21 04:13:13;;;;;;;5.20;3.80;;;;;;;19.76;54.25;101159.16;107705;1244;73112;-71
2022/07/21 04:15:43;;;;;;;6.60;3.50;;;;;;;19.78;54.17;101160.81;107670;1243;60924;-68
2022/07/21 04:18:12;;;;;;;8.70;3.90;;;;;;;19.80;53.92;101159.27;107652;1244;61791;-72
2022/07/21 04:20:41;;;;;;;8.40;3.90;;;;;;;19.83;53.59;101156.27;107454;1244;74503;-75
2022/07/21 04:23:09;;;;;;;8.80;3.70;;;;;;;19.84;53.84;101158.06;107718;1244;72492;-76
2022/07/21 04:25:38;;;;;;;6.70;3.40;;;;;;;19.89;53.52;101160.30;107394;1247;59899;-75
2022/07/21 04:28:08;;;;;;;7.60;4.00;;;;;;;19.89;53.78;101162.78;107936;1244;63545;-74
2022/07/21 04:30:37;;;;;;;7.40;3.10;;;;;;;19.94;53.58;101167.87;107799;1244;61331;-78
2022/07/21 04:33:06;;;;;;;7.10;3.70;;;;;;;19.98;53.30;101165.37;107629;1247;59196;-78
2022/07/21 04:35:36;;;;;;;12.70;3.90;;;;;;;19.80;53.11;101141.40;107901;1244;73838;-75
2022/07/21 04:38:05;;;;;;;6.30;3.10;;;;;;;19.99;52.98;101164.52;107671;1244;71023;-77
2022/07/21 04:40:35;;;;;;;7.90;3.20;;;;;;;20.03;52.64;101165.84;107724;1246;59271;-81
2022/07/21 04:43:06;;;;;;;6.00;3.40;;;;;;;20.06;52.44;101166.02;107620;1246;62754;-76
2022/07/21 04:45:36;;;;;;;8.30;3.70;;;;;;;20.10;51.99;101168.65;107635;1247;59554;-81
2022/07/21 04:48:06;;;;;;;6.80;3.50;;;;;;;20.06;52.22;101168.30;107852;1244;57403;-86
2022/07/21 04:50:35;;;;;;;6.60;3.50;;;;;;;20.14;51.69;101172.48;107735;1245;62947;-85
2022/07/21 04:53:04;;;;;;;5.40;3.10;;;;;;;20.13;51.60;101176.64;108043;1244;70564;-85
2022/07/21 04:55:33;;;;;;;4.40;2.90;;;;;;;20.21;51.41;101174.18;108590;1245;60695;-83
2022/07/21 04:58:04;;;;;;;8.00;3.30;;;;;;;20.20;51.14;101180.99;107795;1246;62479;-81
2022/07/21 05:00:34;;;;;;;10.20;3.60;;;;;;;20.22;51.38;101177.46;107661;1244;60547;-81
2022/07/21 05:03:04;;;;;;;5.40;3.20;;;;;;;20.26;50.85;101174.96;108047;1244;60843;-84
2022/07/21 05:05:33;;;;;;;4.80;3.40;;;;;;;20.28;50.87;101173.80;108156;1244;62626;-75
2022/07/21 05:08:02;;;;;;;4.70;3.20;;;;;;;20.32;50.70;101175.27;107702;1247;61527;-75
2022/07/21 05:10:31;;;;;;;6.20;2.90;;;;;;;20.41;50.12;101172.93;108041;1244;59995;-77
2022/07/21 05:13:00;;;;;;;6.80;3.30;;;;;;;20.49;50.06;101175.31;107886;1244;74259;-79
2022/07/21 05:15:29;;;;;;;8.50;3.50;;;;;;;20.56;49.79;101174.39;108086;1245;61475;-75
2022/07/21 05:17:58;;;;;;;5.20;3.00;;;;;;;20.62;49.26;101174.20;107960;1247;58991;-84
2022/07/21 05:20:27;;;;;;;6.10;2.80;;;;;;;20.63;48.91;101176.22;108116;1244;72286;-77
2022/07/21 05:22:56;;;;;;;6.50;3.00;;;;;;;20.63;48.64;101178.59;108145;1244;72796;-69
2022/07/21 05:25:24;;;;;;;8.60;3.10;;;;;;;20.61;48.62;101177.73;107819;1246;61156;-67
2022/07/21 05:27:53;;;;;;;7.60;3.30;;;;;;;20.67;48.64;101177.98;107888;1244;73815;-65
2022/07/21 05:30:22;;;;;;;6.10;3.30;;;;;;;20.66;48.29;101176.83;107958;1244;58194;-72
2022/07/21 05:32:51;;;;;;;6.00;2.90;;;;;;;20.69;48.19;101181.98;107859;1245;58911;-82
2022/07/21 05:35:20;;;;;;;6.00;3.20;;;;;;;20.73;48.00;101191.63;107887;1244;72623;-81
2022/07/21 05:37:48;;;;;;;7.50;3.10;;;;;;;20.71;48.18;101191.13;107682;1247;63612;-83
2022/07/21 05:40:17;;;;;;;6.10;2.80;;;;;;;20.82;48.30;101194.02;107958;1247;59235;-83
2022/07/21 05:42:48;;;;;;;8.70;3.50;;;;;;;20.93;47.92;101198.54;108711;1244;63360;-82
2022/07/21 05:45:19;;;;;;;6.60;3.60;;;;;;;21.00;47.56;101201.67;108098;1247;58301;-83
2022/07/21 05:47:52;;;;;;;5.50;3.40;;;;;;;21.06;47.02;101199.03;107975;1247;59002;-81
2022/07/21 05:50:24;;;;;;;5.40;3.50;;;;;;;21.15;46.80;101198.98;108160;1244;73830;-83
2022/07/21 05:52:52;;;;;;;6.40;2.90;;;;;;;21.19;46.61;101198.30;107928;1247;61495;-82
2022/07/21 05:55:21;;;;;;;8.60;3.20;;;;;;;21.21;46.44;101194.92;107881;1246;60072;-82
2022/07/21 05:57:50;;;;;;;7.00;3.40;;;;;;;21.27;46.74;101191.46;107944;1245;63257;-80
2022/07/21 06:00:24;;;;;;;6.40;3.30;;;;;;;21.34;46.80;101189.41;108174;1244;59309;-82
2022/07/21 06:02:54;;;;;;;7.20;3.00;;;;;;;21.44;46.86;101190.98;107879;1247;58757;-81
2022/07/21 06:05:23;;;;;;;5.50;3.00;;;;;;;21.57;46.57;101192.60;107869;1244;62304;-82
2022/07/21 06:07:52;;;;;;;7.00;3.40;;;;;;;21.62;46.08;101193.42;107802;1245;62129;-81
2022/07/21 06:10:21;;;;;;;9.60;3.20;;;;;;;21.76;46.12;101192.58;107882;1244;70479;-82
2022/07/21 06:12:52;;;;;;;11.40;3.40;;;;;;;21.88;45.33;101192.83;107885;1247;62770;-80
2022/07/21 06:15:24;;;;;;;6.60;3.20;;;;;;;21.93;44.94;101193.30;107910;1244;58783;-87
2022/07/21 06:17:55;;;;;;;6.90;3.00;;;;;;;22.03;44.44;101188.42;107766;1246;58933;-83
2022/07/21 06:20:25;;;;;;;7.80;3.00;;;;;;;22.04;44.21;101186.33;107828;1242;62019;-84
2022/07/21 06:23:01;;;;;;;7.10;2.90;;;;;;;22.12;44.04;101189.35;108018;1245;61665;-81
2022/07/21 06:25:30;;;;;;;6.20;2.90;;;;;;;22.16;43.91;101186.94;108209;1244;69438;-82
2022/07/21 06:27:59;;;;;;;5.20;2.90;;;;;;;22.25;43.63;101186.76;108063;1244;74563;-84
2022/07/21 06:30:31;;;;;;;8.60;2.70;;;;;;;22.25;43.12;101190.55;107841;1247;60567;-81
2022/07/21 06:33:02;;;;;;;5.30;2.40;;;;;;;22.30;42.87;101187.69;107995;1247;58800;-84
2022/07/21 06:35:35;;;;;;;6.60;2.60;;;;;;;22.30;42.39;101190.17;108085;1245;73016;-85
2022/07/21 06:38:08;;;;;;;3.70;2.20;;;;;;;22.38;42.48;101184.10;107933;1244;72661;-80
2022/07/21 06:40:41;;;;;;;4.60;2.50;;;;;;;22.47;41.92;101181.48;108026;1244;71148;-82
2022/07/21 06:43:19;;;;;;;4.50;2.10;;;;;;;22.59;41.24;101175.64;107905;1244;74444;-81
2022/07/21 06:46:06;;;;;;;5.80;2.40;;;;;;;22.69;40.91;101173.39;108083;1247;58197;-82
2022/07/21 06:48:37;;;;;;;6.50;2.50;;;;;;;22.76;40.91;101168.55;108286;1245;59053;-84
2022/07/21 06:51:12;;;;;;;6.60;2.60;;;;;;;22.84;40.45;101164.19;108020;1247;73183;-85
2022/07/21 06:53:42;;;;;;;5.70;2.50;;;;;;;22.93;40.36;101163.17;108353;1244;61488;-85
2022/07/21 06:56:12;;;;;;;5.60;2.30;;;;;;;23.02;39.30;101164.74;108172;1244;69283;-85
2022/07/21 06:58:43;;;;;;;5.30;2.10;;;;;;;23.07;38.88;101166.66;108052;1244;73118;-84
2022/07/21 07:01:18;;;;;;;8.20;2.30;;;;;;;23.12;38.77;101158.13;107785;1247;59609;-82
2022/07/21 07:03:48;;;;;;;3.90;1.80;;;;;;;23.19;37.70;101165.44;108123;1244;60697;-83
2022/07/21 07:06:23;;;;;;;4.50;2.10;;;;;;;23.17;36.81;101162.66;108073;1244;65583;-84
2022/07/21 07:08:51;;;;;;;5.90;2.10;;;;;;;23.22;36.83;101162.14;107844;1244;72338;-83
2022/07/21 07:11:21;;;;;;;4.70;2.00;;;;;;;23.24;36.89;101160.60;108028;1244;70084;-82
2022/07/21 07:13:50;;;;;;;3.30;1.70;;;;;;;23.34;35.90;101167.02;107877;1244;73764;-81
2022/07/21 07:16:27;;;;;;;5.50;2.20;;;;;;;23.26;36.04;101157.46;107941;1245;60880;-80
2022/07/21 07:18:55;;;;;;;5.60;2.00;;;;;;;23.24;36.39;101162.25;107907;1244;61268;-78
2022/07/21 07:21:25;;;;;;;6.40;2.00;;;;;;;23.28;36.19;101164.72;107648;1247;63774;-79
2022/07/21 07:23:54;;;;;;;4.50;1.70;;;;;;;23.38;35.74;101159.74;107603;1247;70678;-84
2022/07/21 07:26:24;;;;;;;3.70;1.70;;;;;;;23.41;35.30;101163.14;108073;1245;70225;-79
2022/07/21 07:28:52;;;;;;;3.20;1.80;;;;;;;23.44;36.05;101164.75;107894;1244;73800;-86
2022/07/21 07:31:22;;;;;;;6.30;1.90;;;;;;;23.46;36.14;101163.98;107864;1245;59645;-83
2022/07/21 07:33:51;;;;;;;4.20;2.20;;;;;;;23.44;36.05;101170.41;107870;1245;59565;-79
2022/07/21 07:36:20;;;;;;;6.40;1.80;;;;;;;23.54;35.72;101176.49;107725;1247;64238;-80
2022/07/21 07:38:51;;;;;;;4.10;2.00;;;;;;;23.69;34.89;101173.96;107886;1247;61858;-76
2022/07/21 07:41:22;;;;;;;2.90;1.60;;;;;;;23.83;34.62;101176.40;108061;1244;59197;-81
2022/07/21 07:43:51;;;;;;;5.40;1.90;;;;;;;23.88;34.32;101166.56;107941;1246;73070;-79
2022/07/21 07:46:21;;;;;;;3.50;1.80;;;;;;;23.86;34.26;101170.52;107873;1244;60841;-81
2022/07/21 07:48:51;;;;;;;4.50;1.80;;;;;;;23.85;34.35;101170.27;107830;1244;62021;-84
2022/07/21 07:51:25;;;;;;;3.50;1.40;;;;;;;23.99;34.17;101163.26;107582;1247;65014;-83
2022/07/21 07:53:54;;;;;;;3.20;1.70;;;;;;;24.13;33.50;101168.63;108071;1244;69604;-83
2022/07/21 07:56:26;;;;;;;9.30;1.80;;;;;;;24.14;33.45;101166.94;107914;1244;61788;-81
2022/07/21 07:58:55;;;;;;;3.10;1.30;;;;;;;24.17;32.87;101170.40;107644;1245;63738;-83
2022/07/21 08:01:25;;;;;;;2.60;1.60;;;;;;;24.13;32.62;101163.82;107862;1247;61425;-84
2022/07/21 08:03:54;;;;;;;3.80;1.40;;;;;;;24.16;31.45;101179.05;107621;1245;61408;-75
2022/07/21 08:06:23;;;;;;;3.20;1.30;;;;;;;24.16;31.14;101172.68;107573;1245;64290;-72
2022/07/21 08:08:52;;;;;;;4.50;1.70;;;;;;;24.09;31.33;101170.55;107851;1247;61647;-72
2022/07/21 08:11:21;;;;;;;4.80;1.50;;;;;;;24.12;31.45;101168.91;107799;1245;68130;-69
2022/07/21 08:13:51;;;;;;;6.70;1.50;;;;;;;24.14;31.32;101167.12;107715;1247;74108;-67
2022/07/21 08:16:21;;;;;;;4.70;1.40;;;;;;;24.15;30.93;101149.02;107634;1247;60810;-70
2022/07/21 08:18:50;;;;;;;6.60;1.80;;;;;;;24.26;31.57;101160.39;107817;1247;57896;-72
2022/07/21 08:21:21;;;;;;;4.70;1.30;;;;;;;24.38;30.88;101160.45;107664;1245;63812;-73
2022/07/21 08:23:50;;;;;;;2.00;1.30;;;;;;;24.48;29.04;101156.64;107643;1247;60687;-72
2022/07/21 08:26:21;;;;;;;4.20;1.10;;;;;;;24.53;28.43;101161.58;108003;1244;60856;-70
2022/07/21 08:28:57;;;;;;;3.20;1.20;;;;;;;24.51;29.59;101152.37;107585;1245;73155;-70
2022/07/21 08:31:26;;;;;;;3.10;1.40;;;;;;;24.51;29.87;101164.45;107654;1244;61935;-75
2022/07/21 08:33:55;;;;;;;6.00;1.00;;;;;;;24.47;29.18;101157.18;107771;1247;59982;-67
2022/07/21 08:36:24;;;;;;;3.40;1.10;;;;;;;24.56;28.63;101153.52;107708;1247;63832;-75
2022/07/21 08:38:55;;;;;;;6.60;1.20;;;;;;;24.63;28.81;101142.83;107885;1244;60764;-76
2022/07/21 08:41:25;;;;;;;2.40;1.10;;;;;;;24.81;28.75;101148.14;107955;1244;59947;-73
2022/07/21 08:43:54;;;;;;;3.00;1.00;;;;;;;24.95;28.35;101152.73;107968;1245;73819;-74
2022/07/21 08:46:24;;;;;;;3.20;1.10;;;;;;;24.96;27.65;101143.48;107739;1247;59561;-73
2022/07/21 08:48:54;;;;;;;1.70;0.80;;;;;;;24.94;26.59;101158.23;107776;1244;59097;-70
2022/07/21 08:51:24;;;;;;;2.40;0.90;;;;;;;24.93;26.73;101148.44;107716;1244;72629;-75
2022/07/21 08:53:53;;;;;;;2.30;0.80;;;;;;;25.02;26.33;101140.16;107835;1245;61647;-78
2022/07/21 08:56:22;;;;;;;8.00;1.00;;;;;;;25.02;26.27;101140.77;107962;1244;60859;-73
2022/07/21 08:58:51;;;;;;;3.60;1.10;;;;;;;25.05;26.47;101140.35;107857;1245;74955;-76
2022/07/21 09:01:24;;;;;;;1.90;0.90;;;;;;;24.99;26.11;101137.55;107810;1246;61138;-76
2022/07/21 09:03:54;;;;;;;2.40;1.00;;;;;;;25.00;26.39;101132.95;107707;1245;59554;-71
2022/07/21 09:06:23;;;;;;;2.70;1.40;;;;;;;25.19;26.51;101122.33;107820;1244;63795;-71
2022/07/21 09:08:56;;;;;;;2.70;1.10;;;;;;;25.39;26.62;101126.84;107601;1245;60818;-74
2022/07/21 09:11:32;;;;;;;1.60;1.00;;;;;;;25.34;26.55;101130.13;107778;1244;71005;-73
2022/07/21 09:14:08;;;;;;;1.40;0.90;;;;;;;25.38;25.88;101131.64;107696;1245;64441;-72
2022/07/21 09:16:41;;;;;;;2.60;1.00;;;;;;;25.49;25.63;101130.46;107873;1244;59640;-72
2022/07/21 09:19:24;;;;;;;3.60;1.00;;;;;;;25.48;25.30;101130.29;107819;1245;60902;-72
2022/07/21 09:21:57;;;;;;;2.80;0.90;;;;;;;25.50;25.42;101129.02;108029;1244;74447;-72
2022/07/21 09:24:31;;;;;;;3.40;0.90;;;;;;;25.55;25.09;101129.17;107645;1245;72812;-75
2022/07/21 09:27:09;;;;;;;2.30;1.40;;;;;;;25.55;24.94;101129.27;107872;1246;59613;-73
2022/07/21 09:29:43;;;;;;;2.30;0.80;;;;;;;25.57;24.74;101123.47;108059;1244;62478;-76
2022/07/21 09:32:30;;;;;;;2.40;1.00;;;;;;;25.76;25.09;101117.08;108060;1244;60448;-76
2022/07/21 09:35:09;;;;;;;1.20;0.90;;;;;;;25.87;24.81;101109.98;108033;1244;60729;-76
2022/07/21 09:37:39;;;;;;;4.90;0.90;;;;;;;26.06;24.27;101122.01;108058;1244;75369;-78
2022/07/21 09:40:12;;;;;;;7.70;1.00;;;;;;;26.00;23.53;101125.40;108016;1244;72033;-75
2022/07/21 09:42:47;;;;;;;2.70;1.10;;;;;;;25.97;24.34;101108.52;107772;1245;69502;-72
2022/07/21 09:45:18;;;;;;;2.20;0.90;;;;;;;25.96;24.72;101106.00;108023;1244;63215;-73
2022/07/21 09:47:47;;;;;;;1.40;1.00;;;;;;;26.05;25.05;101105.06;107868;1247;59920;-70
2022/07/21 09:50:17;;;;;;;4.00;1.50;;;;;;;26.27;25.11;101102.05;107981;1243;61370;-76
2022/07/21 09:52:57;;;;;;;2.80;1.20;;;;;;;26.35;24.95;101098.58;107906;1245;74115;-75
2022/07/21 09:55:28;;;;;;;2.10;1.00;;;;;;;26.50;24.80;101101.77;107833;1245;72366;-76
2022/07/21 09:57:59;;;;;;;2.10;1.00;;;;;;;26.52;24.67;101095.17;107862;1247;60424;-71
2022/07/21 10:00:28;;;;;;;2.80;0.90;;;;;;;26.50;24.95;101093.48;107844;1244;74034;-72
2022/07/21 10:02:58;;;;;;;2.70;0.70;;;;;;;26.43;25.07;101091.66;107722;1247;59153;-75
2022/07/21 10:05:27;;;;;;;2.70;0.90;;;;;;;26.50;25.00;101091.25;107912;1245;57808;-76
2022/07/21 10:08:03;;;;;;;2.60;0.80;;;;;;;26.45;24.97;101097.30;107913;1244;74361;-75
2022/07/21 10:10:35;;;;;;;4.10;0.90;;;;;;;26.39;24.85;101094.33;107374;1247;61514;-75
2022/07/21 10:13:24;;;;;;;4.10;0.90;;;;;;;26.31;25.35;101081.55;107951;1247;59998;-75
2022/07/21 10:15:54;;;;;;;2.10;0.80;;;;;;;26.65;25.38;101088.53;107945;1244;65105;-75
2022/07/21 10:18:32;;;;;;;1.30;0.80;;;;;;;26.79;24.89;101087.86;107721;1247;59680;-77
2022/07/21 10:21:40;;;;;;;4.90;1.40;;;;;;;26.83;24.89;101090.78;107773;1248;57862;-75
2022/07/21 10:24:13;;;;;;;4.40;1.10;;;;;;;26.75;25.04;101089.69;107928;1247;74822;-74
2022/07/21 10:27:06;;;;;;;5.10;0.90;;;;;;;26.55;24.65;101077.38;107868;1244;72822;-73
2022/07/21 10:29:47;;;;;;;3.30;1.20;;;;;;;26.84;24.62;101080.19;107667;1247;60522;-74
2022/07/21 10:32:20;;;;;;;2.30;0.90;;;;;;;26.95;24.12;101079.97;107880;1245;62511;-79
2022/07/21 10:34:49;;;;;;;1.90;0.90;;;;;;;27.23;23.76;101078.46;107800;1247;59550;-75
2022/07/21 10:38:02;;;;;;;1.70;0.70;;;;;;;27.40;23.10;101083.27;107687;1247;59579;-71
2022/07/21 10:40:32;;;;;;;2.00;0.80;;;;;;;27.71;22.65;101076.61;107035;1250;74405;-71
2022/07/21 10:43:03;;;;;;;3.10;0.90;;;;;;;27.87;22.43;101074.88;107306;1251;62375;-73
2022/07/21 10:45:35;;;;;;;3.10;1.00;;;;;;;27.74;22.64;101063.52;107713;1247;59130;-76
2022/07/21 10:48:08;;;;;;;5.00;1.30;;;;;;;28.18;22.60;101067.94;107970;1244;74022;-71
2022/07/21 10:50:41;;;;;;;3.30;1.30;;;;;;;28.49;22.32;101063.59;107805;1244;59549;-78
2022/07/21 10:53:17;;;;;;;3.30;1.00;;;;;;;28.41;22.56;101066.00;107857;1244;61007;-72
2022/07/21 10:55:55;;;;;;;3.70;1.10;;;;;;;28.85;22.25;101062.83;107886;1244;74767;-78
2022/07/21 10:58:47;;;;;;;2.10;1.00;;;;;;;29.28;21.61;101067.90;107781;1247;61204;-76
2022/07/21 11:01:24;;;;;;;2.60;1.20;;;;;;;29.06;21.00;101069.80;107792;1247;61004;-77
2022/07/21 11:04:20;;;;;;;1.90;0.90;;;;;;;29.10;20.96;101066.10;107889;1245;72369;-73
2022/07/21 11:06:50;;;;;;;1.60;1.00;;;;;;;29.21;21.07;101062.44;107944;1244;58016;-74
2022/07/21 11:09:20;;;;;;;1.90;1.00;;;;;;;29.38;21.11;101054.30;107898;1244;59289;-72
2022/07/21 11:12:03;;;;;;;4.80;1.00;;;;;;;29.47;21.03;101060.02;107912;1244;74852;-78
2022/07/21 11:14:44;;;;;;;2.30;0.80;;;;;;;29.53;21.47;101054.73;107718;1244;70173;-76
2022/07/21 11:17:31;;;;;;;3.30;0.80;;;;;;;29.63;21.05;101048.56;108109;1244;59894;-77
2022/07/21 11:20:01;;;;;;;3.20;1.20;;;;;;;29.45;21.18;101050.70;107781;1247;72619;-79
2022/07/21 11:22:30;;;;;;;5.00;1.00;;;;;;;29.55;21.07;101047.88;107931;1244;59662;-78
2022/07/21 11:25:03;;;;;;;2.70;1.00;;;;;;;29.43;21.32;101043.00;107791;1244;61388;-79
2022/07/21 11:27:40;;;;;;;1.50;0.90;;;;;;;29.36;21.77;101043.43;107667;1245;64639;-77
2022/07/21 11:30:11;;;;;;;2.30;1.20;;;;;;;29.62;21.43;101044.50;107497;1247;61721;-74
2022/07/21 11:32:47;;;;;;;1.50;0.80;;;;;;;29.72;20.66;101047.56;107546;1245;71548;-72
2022/07/21 11:35:16;;;;;;;2.60;0.80;;;;;;;29.82;20.42;101035.48;107624;1246;64560;-75
2022/07/21 11:37:47;;;;;;;4.40;1.10;;;;;;;29.72;20.73;101029.95;107936;1244;57954;-72